Terminal Aerodrome Forecast
Issued by NWS La Crosse, WI

Home | Current Version | Previous Version | Text Only | Print | Product List | Glossary On
Versions: 1 2 3 4 5 6 7 8 9 10 11 12 13 14 15 16 17 18 19 20 21 22 23 24 25 26 27 28 29 30 31 32 33 34 35 36 37 38 39 40 41 42 43 44 45 46
065
FTUS43 KARX 272332
TAFLSE
TAF
KLSE 272332Z 2800/2824 VRB03KT P6SM OVC020
     FM280600 VRB03KT 5SM BR OVC025
     FM281000 VRB03KT 1 1/2SM BR OVC015
     FM281300 05004KT 3SM BR OVC015
     FM281500 06005KT P6SM BKN015
     FM281700 06005KT P6SM SCT030=

USA.gov is the U.S. government's official web portal to all federal, state and local government web resources and services.